Time;durP1;ratioP1;P1;durP2;ratioP2;P2;SDS_P1;SDS_P2;PMS_P1;PMS_P2;Temp;Humidity;BMP_temperature;BMP_pressure;BME280_temperature;BME280_humidity;BME280_pressure;Samples;Min_cycle;Max_cycle;Signal;HPM_P1;HPM_P2
2021/01/12 00:00:08;;;;;;;19.67;17.43;;;0.10;99.90;;;;;;4934291;29;20830;-75
2021/01/12 00:02:35;;;;;;;25.73;18.83;;;0.10;99.90;;;;;;4934754;29;20551;-74
2021/01/12 00:05:02;;;;;;;29.90;20.07;;;0.10;99.90;;;;;;4934147;29;20462;-75
2021/01/12 00:07:28;;;;;;;23.40;18.20;;;0.10;99.90;;;;;;4933913;29;20473;-75
2021/01/12 00:09:54;;;;;;;20.67;18.50;;;0.10;99.90;;;;;;4933647;29;20458;-74
2021/01/12 00:12:21;;;;;;;20.17;18.03;;;0.30;99.90;;;;;;4934201;29;20464;-74
2021/01/12 00:14:47;;;;;;;20.93;17.63;;;0.30;99.90;;;;;;4934048;29;20489;-74
2021/01/12 00:17:14;;;;;;;20.13;18.10;;;0.30;99.90;;;;;;4933736;29;20825;-74
2021/01/12 00:19:42;;;;;;;23.33;18.20;;;0.20;99.90;;;;;;4933831;29;20795;-74
2021/01/12 00:22:14;;;;;;;20.63;18.53;;;0.20;99.90;;;;;;4933594;29;20839;-74
2021/01/12 00:24:41;;;;;;;15.93;14.63;;;0.10;99.90;;;;;;4933730;29;20520;-74
2021/01/12 00:27:07;;;;;;;18.43;16.73;;;0.00;99.90;;;;;;4933615;29;20544;-75
2021/01/12 00:29:34;;;;;;;15.40;14.10;;;0.00;99.90;;;;;;4933739;29;20826;-76
2021/01/12 00:32:01;;;;;;;18.70;15.80;;;0.00;99.90;;;;;;4933878;29;20465;-76
2021/01/12 00:34:27;;;;;;;16.63;15.13;;;0.10;99.90;;;;;;4933609;29;20941;-75
2021/01/12 00:36:54;;;;;;;21.97;18.10;;;0.10;99.90;;;;;;4933627;29;20487;-75
2021/01/12 00:39:21;;;;;;;17.27;15.87;;;0.20;99.90;;;;;;4933594;29;20809;-75
2021/01/12 00:41:49;;;;;;;17.40;15.60;;;0.30;99.90;;;;;;4933182;29;20835;-74
2021/01/12 00:44:15;;;;;;;20.47;18.23;;;0.40;99.90;;;;;;4933524;29;20462;-75
2021/01/12 00:46:43;;;;;;;19.60;16.83;;;0.40;99.90;;;;;;4933563;29;20844;-75
2021/01/12 00:49:10;;;;;;;18.60;16.63;;;0.40;99.90;;;;;;4933293;29;20457;-75
2021/01/12 00:51:38;;;;;;;17.47;15.60;;;0.30;99.90;;;;;;4933362;29;20456;-75
2021/01/12 00:54:07;;;;;;;12.20;11.07;;;0.30;99.90;;;;;;4933098;29;20461;-76
2021/01/12 00:56:33;;;;;;;16.67;15.13;;;0.40;99.90;;;;;;4933023;29;20486;-75
2021/01/12 00:58:59;;;;;;;17.40;15.30;;;0.40;99.90;;;;;;4933261;29;20530;-75
2021/01/12 01:01:26;;;;;;;17.23;15.60;;;0.40;99.90;;;;;;4933105;29;20825;-75
2021/01/12 01:03:52;;;;;;;21.97;14.63;;;0.50;99.90;;;;;;4933156;29;20458;-75
2021/01/12 01:06:19;;;;;;;19.27;17.37;;;0.50;99.90;;;;;;4933108;29;20560;-74
2021/01/12 01:08:46;;;;;;;16.17;14.53;;;0.60;99.90;;;;;;4933357;29;20531;-74
2021/01/12 01:11:13;;;;;;;18.17;16.47;;;0.60;99.90;;;;;;4932963;29;20951;-75
2021/01/12 01:13:39;;;;;;;18.80;17.00;;;0.60;99.90;;;;;;4933148;29;20457;-73
2021/01/12 01:16:05;;;;;;;19.17;16.40;;;0.80;99.90;;;;;;4932971;29;20489;-74
2021/01/12 01:18:32;;;;;;;19.10;17.40;;;0.80;99.90;;;;;;4933079;29;20820;-75
2021/01/12 01:20:59;;;;;;;17.47;15.80;;;0.90;99.90;;;;;;4932734;29;20454;-74
2021/01/12 01:23:25;;;;;;;19.20;16.87;;;0.80;99.90;;;;;;4933048;29;20460;-75
2021/01/12 01:25:52;;;;;;;18.00;16.40;;;0.90;99.90;;;;;;4932912;29;20462;-76
2021/01/12 01:28:20;;;;;;;20.80;18.37;;;1.00;99.90;;;;;;4932899;29;20980;-76
2021/01/12 01:30:47;;;;;;;20.27;18.07;;;1.00;99.90;;;;;;4932943;29;20487;-75
2021/01/12 01:33:13;;;;;;;19.17;17.27;;;1.10;99.90;;;;;;4932989;29;20505;-74
2021/01/12 01:35:40;;;;;;;17.83;16.00;;;1.20;99.90;;;;;;4932679;29;20466;-75
2021/01/12 01:38:06;;;;;;;16.47;15.03;;;1.20;99.90;;;;;;4932613;29;20951;-76
2021/01/12 01:40:32;;;;;;;18.43;16.73;;;1.20;99.90;;;;;;4932706;29;20483;-75
2021/01/12 01:42:58;;;;;;;19.73;17.63;;;1.20;99.90;;;;;;4932781;29;20479;-76
2021/01/12 01:45:25;;;;;;;16.37;14.80;;;1.20;99.90;;;;;;4932591;29;20825;-75
2021/01/12 01:47:52;;;;;;;19.03;16.70;;;1.20;99.90;;;;;;4932833;29;20445;-76
2021/01/12 01:50:20;;;;;;;16.90;15.33;;;1.40;99.90;;;;;;4932957;29;20460;-76
2021/01/12 01:52:50;;;;;;;16.67;15.23;;;1.50;99.90;;;;;;4932647;29;20451;-74
2021/01/12 01:55:17;;;;;;;17.20;15.57;;;1.50;99.90;;;;;;4932824;29;20470;-75
2021/01/12 01:57:44;;;;;;;15.57;13.83;;;1.40;99.90;;;;;;4932655;29;20863;-73
2021/01/12 02:00:11;;;;;;;17.67;15.77;;;1.40;99.90;;;;;;4932726;29;20459;-74
2021/01/12 02:02:46;;;;;;;17.57;16.07;;;1.40;99.90;;;;;;4932372;29;20464;-73
2021/01/12 02:05:14;;;;;;;11.83;11.03;;;1.40;99.90;;;;;;4932525;29;20723;-74
2021/01/12 02:07:44;;;;;;;16.33;14.67;;;1.40;99.90;;;;;;4935896;29;20455;-74
2021/01/12 02:10:14;;;;;;;15.70;14.20;;;1.30;99.90;;;;;;4936248;29;20650;-74
2021/01/12 02:12:46;;;;;;;14.70;11.90;;;1.40;99.90;;;;;;4936312;29;20774;-75
2021/01/12 02:15:17;;;;;;;14.47;13.27;;;1.40;99.90;;;;;;4936135;29;20456;-74
2021/01/12 02:17:45;;;;;;;15.93;13.90;;;1.40;99.90;;;;;;4935668;29;20490;-75
2021/01/12 02:20:13;;;;;;;15.10;13.90;;;1.40;99.90;;;;;;4935855;29;21232;-75
2021/01/12 02:22:45;;;;;;;14.63;13.33;;;1.40;99.90;;;;;;4935832;29;20457;-75
2021/01/12 02:25:14;;;;;;;12.00;11.27;;;1.40;99.90;;;;;;4936022;29;20460;-75
2021/01/12 02:27:40;;;;;;;17.07;15.67;;;1.50;99.90;;;;;;4936013;29;20531;-75
2021/01/12 02:30:08;;;;;;;15.47;13.97;;;1.50;99.90;;;;;;4935587;29;20461;-75
2021/01/12 02:32:34;;;;;;;14.20;13.20;;;1.50;99.90;;;;;;4935901;29;20873;-75
2021/01/12 02:35:02;;;;;;;14.30;13.13;;;1.60;99.90;;;;;;4935556;29;20507;-75
2021/01/12 02:37:29;;;;;;;13.17;12.20;;;1.60;99.90;;;;;;4935466;29;20495;-75
2021/01/12 02:39:59;;;;;;;13.90;12.67;;;1.60;99.90;;;;;;4935143;29;20862;-75
2021/01/12 02:42:27;;;;;;;14.60;13.40;;;1.60;99.90;;;;;;4935567;29;20463;-75
2021/01/12 02:44:53;;;;;;;15.07;13.23;;;1.60;99.90;;;;;;4935592;29;20827;-75
2021/01/12 02:47:19;;;;;;;15.50;14.20;;;1.70;99.90;;;;;;4935661;29;20866;-75
2021/01/12 02:49:46;;;;;;;13.83;12.63;;;1.70;99.90;;;;;;4935382;29;20471;-75
2021/01/12 02:52:13;;;;;;;14.90;13.60;;;1.70;99.90;;;;;;4935444;29;20804;-77
2021/01/12 02:54:40;;;;;;;13.17;12.27;;;1.80;99.90;;;;;;4935287;29;20458;-77
2021/01/12 02:57:07;;;;;;;14.30;12.80;;;1.80;99.90;;;;;;4935314;29;20528;-77
2021/01/12 02:59:34;;;;;;;14.20;13.10;;;1.80;99.90;;;;;;4935400;29;20483;-76
2021/01/12 03:02:00;;;;;;;13.30;12.40;;;1.90;99.90;;;;;;4935330;29;20454;-76
2021/01/12 03:04:27;;;;;;;12.50;11.57;;;1.90;99.90;;;;;;4934992;29;20458;-77
2021/01/12 03:06:53;;;;;;;13.10;12.13;;;1.90;99.90;;;;;;4935220;29;20457;-76
2021/01/12 03:09:19;;;;;;;11.57;10.67;;;1.90;99.90;;;;;;4935375;29;20466;-76
2021/01/12 03:11:50;;;;;;;15.23;13.80;;;1.90;99.90;;;;;;4935244;29;20460;-76
2021/01/12 03:14:16;;;;;;;12.43;11.73;;;2.00;99.90;;;;;;4935308;29;20507;-76
2021/01/12 03:16:43;;;;;;;12.37;11.57;;;2.00;99.90;;;;;;4934659;29;20482;-76
2021/01/12 03:19:09;;;;;;;11.73;10.80;;;2.00;99.90;;;;;;4934302;29;20976;-76
2021/01/12 03:21:36;;;;;;;10.80;10.20;;;2.00;99.90;;;;;;4934928;29;20958;-76
2021/01/12 03:24:02;;;;;;;12.90;11.80;;;2.00;99.90;;;;;;4934841;29;20456;-76
2021/01/12 03:26:28;;;;;;;13.90;12.77;;;2.00;99.90;;;;;;4934490;29;20452;-77
2021/01/12 03:28:55;;;;;;;11.70;10.90;;;2.10;99.90;;;;;;4934797;29;20465;-76
2021/01/12 03:31:21;;;;;;;10.80;10.20;;;2.10;99.90;;;;;;4934832;29;20971;-76
2021/01/12 03:33:48;;;;;;;11.80;11.00;;;2.10;99.90;;;;;;4935105;29;21010;-76
2021/01/12 03:36:14;;;;;;;13.80;12.80;;;2.10;99.90;;;;;;4934439;29;20457;-76
2021/01/12 03:38:40;;;;;;;11.93;11.10;;;2.20;99.90;;;;;;4934303;29;20472;-76
2021/01/12 03:41:06;;;;;;;13.23;12.23;;;2.10;99.90;;;;;;4934260;29;20997;-76
2021/01/12 03:43:33;;;;;;;12.13;11.37;;;2.10;99.90;;;;;;4934760;29;20464;-76
2021/01/12 03:45:59;;;;;;;13.23;12.23;;;2.20;99.90;;;;;;4934522;29;20466;-75
2021/01/12 03:48:25;;;;;;;12.57;11.60;;;2.20;99.90;;;;;;4934312;29;20697;-76
2021/01/12 03:50:52;;;;;;;11.27;10.67;;;2.20;99.90;;;;;;4934619;29;20453;-76
2021/01/12 03:53:18;;;;;;;12.27;11.30;;;2.20;99.90;;;;;;4934748;29;20831;-77
2021/01/12 03:55:45;;;;;;;12.63;11.73;;;2.30;99.90;;;;;;4934158;29;20461;-76
2021/01/12 03:58:11;;;;;;;10.17;9.53;;;2.30;99.90;;;;;;4934254;29;20496;-77
2021/01/12 04:00:37;;;;;;;12.20;11.30;;;2.30;99.90;;;;;;4933863;29;20463;-76
2021/01/12 04:03:04;;;;;;;12.60;11.80;;;2.30;99.90;;;;;;4934437;29;20461;-77
2021/01/12 04:05:30;;;;;;;12.20;11.30;;;2.30;99.90;;;;;;4934022;29;20458;-77
2021/01/12 04:08:00;;;;;;;11.63;10.93;;;2.30;99.90;;;;;;4934212;29;20849;-78
2021/01/12 04:10:27;;;;;;;12.57;11.70;;;2.30;99.90;;;;;;4934010;29;20966;-78
2021/01/12 04:12:53;;;;;;;10.33;9.73;;;2.30;99.90;;;;;;4933690;29;20461;-79
2021/01/12 04:15:19;;;;;;;10.33;9.77;;;2.30;99.90;;;;;;4934210;29;20462;-76
2021/01/12 04:17:46;;;;;;;10.90;10.20;;;2.40;99.90;;;;;;4934020;29;20492;-76
2021/01/12 04:20:13;;;;;;;12.17;11.20;;;2.40;99.90;;;;;;4933470;29;20462;-76
2021/01/12 04:22:40;;;;;;;10.20;9.60;;;2.40;99.90;;;;;;4933890;29;20463;-77
2021/01/12 04:25:08;;;;;;;12.47;11.43;;;2.40;99.90;;;;;;4933747;29;20461;-77
2021/01/12 04:27:34;;;;;;;11.40;10.80;;;2.50;99.90;;;;;;4933835;29;20457;-76
2021/01/12 04:30:00;;;;;;;11.80;10.83;;;2.40;99.90;;;;;;4932895;29;20456;-75
2021/01/12 04:32:26;;;;;;;13.67;12.63;;;2.40;99.90;;;;;;4933422;29;20778;-75
2021/01/12 04:34:52;;;;;;;12.10;11.20;;;2.50;99.90;;;;;;4933417;29;20470;-75
2021/01/12 04:37:19;;;;;;;12.90;11.80;;;2.50;99.90;;;;;;4933736;29;20512;-76
2021/01/12 04:39:45;;;;;;;12.43;11.63;;;2.50;99.90;;;;;;4933089;29;20481;-74
2021/01/12 04:42:12;;;;;;;12.80;11.87;;;2.50;99.90;;;;;;4933546;29;20533;-75
2021/01/12 04:44:38;;;;;;;14.13;12.93;;;2.60;99.90;;;;;;4933552;29;20464;-75
2021/01/12 04:47:06;;;;;;;11.90;11.20;;;2.50;99.90;;;;;;4933170;29;20978;-74
2021/01/12 04:49:32;;;;;;;12.40;11.57;;;2.50;99.90;;;;;;4933413;29;20835;-75
2021/01/12 04:51:58;;;;;;;13.37;12.20;;;2.50;99.90;;;;;;4933325;29;20453;-75
2021/01/12 04:54:31;;;;;;;12.00;11.27;;;2.50;99.90;;;;;;4933164;29;20457;-76
2021/01/12 04:56:57;;;;;;;12.17;11.30;;;2.50;99.90;;;;;;4933153;29;20484;-75
2021/01/12 04:59:31;;;;;;;15.53;14.43;;;2.60;99.90;;;;;;4933312;29;20457;-75
2021/01/12 05:01:58;;;;;;;10.50;9.80;;;2.60;99.90;;;;;;4932989;29;20516;-76
2021/01/12 05:04:24;;;;;;;12.20;11.20;;;2.70;99.90;;;;;;4933012;29;20449;-75
2021/01/12 05:06:53;;;;;;;13.50;12.30;;;2.70;99.90;;;;;;4932823;29;20505;-76
2021/01/12 05:09:21;;;;;;;12.90;12.03;;;2.70;99.90;;;;;;4933071;29;20453;-76
2021/01/12 05:11:47;;;;;;;13.00;11.90;;;2.70;99.90;;;;;;4933013;29;21051;-76
2021/01/12 05:14:16;;;;;;;12.70;11.90;;;2.70;99.90;;;;;;4932731;29;20508;-75
2021/01/12 05:16:50;;;;;;;14.17;13.17;;;2.60;99.90;;;;;;4932888;29;20558;-75
2021/01/12 05:19:21;;;;;;;14.97;13.67;;;2.70;99.90;;;;;;4932919;29;20480;-75
2021/01/12 05:21:48;;;;;;;14.40;13.00;;;2.70;99.90;;;;;;4933154;29;20738;-76
2021/01/12 05:24:18;;;;;;;13.90;12.70;;;2.70;99.90;;;;;;4932965;29;20565;-76
2021/01/12 05:26:45;;;;;;;13.70;12.70;;;2.70;99.90;;;;;;4932962;29;20796;-76
2021/01/12 05:29:11;;;;;;;14.10;12.90;;;2.70;99.90;;;;;;4932623;29;20454;-76
2021/01/12 05:31:38;;;;;;;15.13;14.00;;;2.80;99.90;;;;;;4932895;29;20460;-76
2021/01/12 05:34:06;;;;;;;15.67;14.27;;;2.70;99.90;;;;;;4932872;29;20457;-77
2021/01/12 05:36:34;;;;;;;15.50;14.03;;;2.70;99.90;;;;;;4932899;29;20544;-76
2021/01/12 05:39:02;;;;;;;13.80;12.90;;;2.60;99.90;;;;;;4932408;29;20468;-75
2021/01/12 05:41:29;;;;;;;15.63;14.13;;;2.70;99.90;;;;;;4933595;29;21041;-76
2021/01/12 05:43:57;;;;;;;13.90;13.00;;;2.70;99.90;;;;;;4936566;29;20831;-76
2021/01/12 05:46:23;;;;;;;13.87;13.07;;;2.60;99.90;;;;;;4936497;29;20458;-76
2021/01/12 05:48:49;;;;;;;14.60;13.30;;;2.60;99.90;;;;;;4936516;29;20453;-77
2021/01/12 05:51:17;;;;;;;15.07;14.07;;;2.70;99.90;;;;;;4936683;29;20512;-76
2021/01/12 05:54:03;;;;;;;12.63;11.77;;;2.70;99.90;;;;;;4936105;29;20970;-78
2021/01/12 05:56:30;;;;;;;14.83;13.43;;;2.60;99.90;;;;;;4936029;29;20519;-77
2021/01/12 05:58:57;;;;;;;14.00;13.00;;;2.70;99.90;;;;;;4936377;29;20449;-76
2021/01/12 06:01:45;;;;;;;11.83;11.10;;;2.70;99.90;;;;;;4936152;29;20515;-76
2021/01/12 06:04:13;;;;;;;13.33;12.50;;;2.60;99.90;;;;;;4936169;29;20955;-76
2021/01/12 06:06:42;;;;;;;14.33;13.23;;;2.80;99.90;;;;;;4936232;29;20948;-77
2021/01/12 06:09:11;;;;;;;13.30;12.40;;;2.80;99.90;;;;;;4936055;29;20452;-76
2021/01/12 06:11:39;;;;;;;13.70;12.50;;;2.90;99.90;;;;;;4936236;29;20948;-75
2021/01/12 06:14:08;;;;;;;12.40;11.60;;;2.90;99.90;;;;;;4936394;29;20454;-76
2021/01/12 06:16:36;;;;;;;13.97;12.77;;;3.00;99.90;;;;;;4936286;29;20592;-76
2021/01/12 06:19:14;;;;;;;12.47;11.57;;;3.20;99.90;;;;;;4936475;29;20505;-75
2021/01/12 06:22:12;;;;;;;13.33;11.50;;;3.20;99.90;;;;;;4935956;29;20464;-75
2021/01/12 06:24:52;;;;;;;12.87;11.90;;;3.30;99.90;;;;;;4935672;29;20870;-75
2021/01/12 06:27:23;;;;;;;12.27;11.47;;;3.20;99.90;;;;;;4936030;29;20458;-76
2021/01/12 06:29:50;;;;;;;11.97;11.17;;;3.20;99.90;;;;;;4936258;29;20442;-76
2021/01/12 06:32:17;;;;;;;12.23;11.53;;;3.00;99.90;;;;;;4935894;29;20469;-76
2021/01/12 06:34:44;;;;;;;14.07;12.90;;;3.00;99.90;;;;;;4935390;29;20458;-77
2021/01/12 06:37:12;;;;;;;13.53;12.60;;;3.00;99.90;;;;;;4935587;29;20493;-77
2021/01/12 06:39:43;;;;;;;13.83;12.93;;;3.10;99.90;;;;;;4935454;29;20484;-77
2021/01/12 06:42:11;;;;;;;12.33;11.60;;;3.00;99.90;;;;;;4935837;29;20460;-76
2021/01/12 06:44:39;;;;;;;12.43;11.63;;;3.00;99.90;;;;;;4935465;29;20482;-76
2021/01/12 06:47:07;;;;;;;13.20;12.30;;;3.00;99.90;;;;;;4935681;29;20462;-76
2021/01/12 06:49:34;;;;;;;12.57;11.77;;;3.00;99.90;;;;;;4935697;29;20453;-77
2021/01/12 06:52:02;;;;;;;13.23;12.23;;;3.00;99.90;;;;;;4935762;29;20454;-76
2021/01/12 06:54:34;;;;;;;12.57;11.77;;;3.10;99.90;;;;;;4935066;29;20461;-75
2021/01/12 06:57:01;;;;;;;14.53;13.63;;;3.10;99.90;;;;;;4935235;29;20510;-74
2021/01/12 06:59:38;;;;;;;12.77;11.73;;;3.10;99.90;;;;;;4935194;29;20465;-74
2021/01/12 07:02:06;;;;;;;12.17;11.43;;;3.10;99.90;;;;;;4935482;29;20952;-76
2021/01/12 07:04:32;;;;;;;12.73;11.57;;;3.20;99.90;;;;;;4935396;29;20452;-75
2021/01/12 07:07:01;;;;;;;12.43;11.57;;;3.10;99.90;;;;;;4935158;29;20458;-75
2021/01/12 07:09:28;;;;;;;11.80;11.10;;;3.20;99.90;;;;;;4934999;29;20837;-74
2021/01/12 07:12:12;;;;;;;11.50;10.50;;;3.20;99.90;;;;;;4934974;29;20944;-74
2021/01/12 07:14:45;;;;;;;11.97;11.07;;;3.20;99.90;;;;;;4935065;29;20461;-74
2021/01/12 07:17:12;;;;;;;10.40;9.80;;;3.20;99.90;;;;;;4935000;29;20522;-74
2021/01/12 07:19:38;;;;;;;11.40;10.90;;;3.30;99.90;;;;;;4934645;29;20458;-74
2021/01/12 07:22:11;;;;;;;13.57;12.67;;;3.40;99.90;;;;;;4934986;29;20458;-75
2021/01/12 07:24:41;;;;;;;12.70;11.97;;;3.50;99.90;;;;;;4934685;29;20482;-75
2021/01/12 07:27:11;;;;;;;31.27;11.73;;;3.50;99.90;;;;;;4934802;29;20824;-76
2021/01/12 07:29:50;;;;;;;11.13;10.47;;;3.50;99.90;;;;;;4934915;29;20448;-76
2021/01/12 07:32:27;;;;;;;10.40;9.67;;;3.40;99.90;;;;;;4934579;29;20461;-76
2021/01/12 07:34:57;;;;;;;11.47;10.67;;;3.40;99.90;;;;;;4934450;29;20508;-75
2021/01/12 07:37:32;;;;;;;9.70;9.10;;;3.40;99.90;;;;;;4934354;29;20827;-75
2021/01/12 07:39:59;;;;;;;12.70;11.70;;;3.40;99.90;;;;;;4934466;29;20490;-76
2021/01/12 07:42:26;;;;;;;10.90;10.23;;;3.40;99.90;;;;;;4934380;29;21110;-75
2021/01/12 07:44:53;;;;;;;12.40;11.10;;;3.40;99.90;;;;;;4934102;29;20465;-74
2021/01/12 07:47:19;;;;;;;11.20;10.60;;;3.50;99.90;;;;;;4934552;29;20445;-74
2021/01/12 07:49:49;;;;;;;11.63;10.73;;;3.50;99.90;;;;;;4934284;29;20461;-75
2021/01/12 07:52:15;;;;;;;11.70;10.80;;;3.50;99.90;;;;;;4934595;29;20478;-74
2021/01/12 07:54:42;;;;;;;12.07;11.23;;;3.50;99.90;;;;;;4934290;29;20457;-74
2021/01/12 07:57:09;;;;;;;12.13;11.37;;;3.60;99.90;;;;;;4934371;29;20496;-73
2021/01/12 07:59:38;;;;;;;12.13;11.20;;;3.60;99.90;;;;;;4934203;29;20551;-75
2021/01/12 08:02:05;;;;;;;11.80;11.00;;;3.60;99.90;;;;;;4934327;29;20515;-75
2021/01/12 08:04:31;;;;;;;10.40;9.80;;;3.70;99.90;;;;;;4933819;29;20818;-76
2021/01/12 08:06:58;;;;;;;12.10;11.30;;;3.70;99.90;;;;;;4933683;29;20853;-76
2021/01/12 08:09:25;;;;;;;11.70;11.00;;;3.70;99.90;;;;;;4933857;29;20503;-76
2021/01/12 08:11:58;;;;;;;12.63;11.83;;;3.70;99.90;;;;;;4933876;29;20443;-76
2021/01/12 08:14:24;;;;;;;11.90;11.00;;;3.70;99.90;;;;;;4933907;29;20490;-75
2021/01/12 08:16:53;;;;;;;12.20;11.40;;;3.80;99.90;;;;;;4933581;29;20540;-75
2021/01/12 08:19:21;;;;;;;12.77;11.93;;;3.80;99.90;;;;;;4933793;29;20461;-76
2021/01/12 08:21:47;;;;;;;11.27;10.67;;;3.90;99.90;;;;;;4933735;29;21019;-76
2021/01/12 08:24:20;;;;;;;11.97;11.17;;;3.90;99.90;;;;;;4933434;29;20560;-75
2021/01/12 08:26:46;;;;;;;10.93;10.33;;;3.80;99.90;;;;;;4933264;29;20450;-75
2021/01/12 08:29:13;;;;;;;11.67;10.80;;;3.80;99.90;;;;;;4933298;29;20972;-76
2021/01/12 08:31:48;;;;;;;11.10;10.40;;;3.80;99.90;;;;;;4933622;29;20456;-76
2021/01/12 08:34:19;;;;;;;11.87;10.97;;;3.90;99.90;;;;;;4933348;29;20453;-80
2021/01/12 08:36:48;;;;;;;11.77;10.97;;;3.80;99.90;;;;;;4933443;29;20467;-77
2021/01/12 08:39:15;;;;;;;12.23;11.13;;;3.90;99.90;;;;;;4933638;29;20476;-76
2021/01/12 08:41:42;;;;;;;10.27;9.77;;;3.90;99.90;;;;;;4933460;29;20526;-76
2021/01/12 08:44:12;;;;;;;10.40;9.90;;;3.90;99.90;;;;;;4932988;29;20454;-75
2021/01/12 08:46:38;;;;;;;11.23;10.53;;;3.90;99.90;;;;;;4932885;29;20489;-77
2021/01/12 08:49:04;;;;;;;12.17;11.30;;;3.90;99.90;;;;;;4933259;29;20455;-77
2021/01/12 08:51:32;;;;;;;11.53;10.73;;;3.90;99.90;;;;;;4933028;29;20460;-75
2021/01/12 08:54:00;;;;;;;11.27;10.63;;;4.00;99.90;;;;;;4933995;29;20820;-83
2021/01/12 08:56:27;;;;;;;9.93;9.43;;;4.00;99.90;;;;;;4935531;29;20463;-76
2021/01/12 08:59:04;;;;;;;10.53;9.93;;;4.00;99.90;;;;;;4932625;29;20536;-77
2021/01/12 09:01:35;;;;;;;10.77;10.07;;;4.00;99.90;;;;;;4934116;29;20469;-78
2021/01/12 09:04:06;;;;;;;11.57;10.87;;;4.10;99.90;;;;;;4929474;29;20513;-75
2021/01/12 09:06:33;;;;;;;9.20;8.80;;;4.10;99.90;;;;;;4936684;29;20497;-78
2021/01/12 09:09:11;;;;;;;11.03;10.50;;;4.00;99.90;;;;;;4944492;29;20479;-76
2021/01/12 09:11:45;;;;;;;11.07;10.47;;;4.10;99.90;;;;;;4925219;29;20762;-78
2021/01/12 09:14:12;;;;;;;8.80;8.30;;;4.10;99.90;;;;;;4932862;29;20471;-78
2021/01/12 09:16:42;;;;;;;9.83;9.33;;;4.10;99.90;;;;;;4932612;29;20446;-77
2021/01/12 09:19:17;;;;;;;12.67;11.57;;;4.10;99.90;;;;;;4914205;29;20463;-76
2021/01/12 09:21:45;;;;;;;11.17;10.20;;;4.20;99.90;;;;;;4914038;29;20469;-78
2021/01/12 09:24:19;;;;;;;11.20;10.60;;;4.20;99.90;;;;;;4914214;29;20824;-77
2021/01/12 09:26:46;;;;;;;12.00;11.40;;;4.20;99.90;;;;;;4926210;29;20870;-76
2021/01/12 09:29:12;;;;;;;11.93;11.37;;;4.10;99.90;;;;;;4932802;29;20457;-76
2021/01/12 09:31:45;;;;;;;14.37;13.47;;;4.10;99.90;;;;;;4932741;29;20534;-75
2021/01/12 09:34:13;;;;;;;13.40;12.63;;;4.10;99.90;;;;;;4932722;29;20445;-75
2021/01/12 09:36:39;;;;;;;15.70;14.90;;;4.10;99.90;;;;;;4932736;29;20799;-74
2021/01/12 09:39:12;;;;;;;14.77;14.07;;;4.10;99.90;;;;;;4932748;29;20481;-75
2021/01/12 09:41:39;;;;;;;16.23;15.40;;;4.10;99.90;;;;;;4948338;29;20496;-73
2021/01/12 09:44:06;;;;;;;15.50;14.60;;;4.10;99.90;;;;;;4936980;29;20487;-72
2021/01/12 09:46:32;;;;;;;17.10;16.30;;;4.10;99.90;;;;;;4932552;29;20449;-73
2021/01/12 09:48:58;;;;;;;19.83;18.93;;;4.10;99.90;;;;;;4932504;29;20513;-72
2021/01/12 09:51:25;;;;;;;27.30;25.80;;;4.10;99.90;;;;;;4932366;29;20459;-72
2021/01/12 09:53:51;;;;;;;29.43;27.93;;;4.10;99.90;;;;;;4932397;29;20462;-73
2021/01/12 09:56:20;;;;;;;27.67;26.37;;;4.10;99.90;;;;;;4932398;29;20457;-71
2021/01/12 09:58:48;;;;;;;26.63;25.27;;;3.90;99.90;;;;;;4932383;29;20512;-72
2021/01/12 10:01:14;;;;;;;25.50;24.30;;;3.90;99.90;;;;;;4932334;29;20469;-75
2021/01/12 10:03:40;;;;;;;23.57;22.60;;;3.80;99.90;;;;;;4932347;29;20477;-73
2021/01/12 10:06:07;;;;;;;24.97;23.87;;;3.70;99.90;;;;;;4932462;29;20524;-75
2021/01/12 10:08:33;;;;;;;25.20;24.10;;;3.70;99.90;;;;;;4932392;29;20478;-74
2021/01/12 10:11:03;;;;;;;24.00;23.10;;;3.70;99.90;;;;;;4932172;29;20458;-75
2021/01/12 10:13:30;;;;;;;22.27;21.27;;;3.70;99.90;;;;;;4932383;29;20462;-74
2021/01/12 10:15:56;;;;;;;23.83;22.83;;;3.70;99.90;;;;;;4932186;29;20469;-72
2021/01/12 10:18:22;;;;;;;23.03;22.13;;;3.80;99.90;;;;;;4947977;29;20487;-73
2021/01/12 10:20:48;;;;;;;23.57;22.63;;;3.80;99.90;;;;;;4951231;29;20537;-73
2021/01/12 10:23:15;;;;;;;23.80;22.70;;;3.60;99.90;;;;;;4951263;29;20485;-74
2021/01/12 10:25:42;;;;;;;23.40;22.50;;;3.70;99.90;;;;;;4951338;29;20814;-74
2021/01/12 10:28:08;;;;;;;23.67;22.77;;;3.70;99.90;;;;;;4953408;28;20444;-73
2021/01/12 10:30:35;;;;;;;24.67;23.47;;;3.70;99.90;;;;;;4954929;29;20463;-74
2021/01/12 10:33:01;;;;;;;23.27;22.37;;;3.70;99.90;;;;;;4954961;29;20453;-74
2021/01/12 10:35:28;;;;;;;23.53;22.63;;;3.70;99.90;;;;;;4954451;29;20460;-74
2021/01/12 10:37:54;;;;;;;22.90;22.10;;;3.60;99.90;;;;;;4940961;29;20490;-75
2021/01/12 10:40:21;;;;;;;21.47;20.60;;;3.70;99.90;;;;;;4935346;29;20852;-74
2021/01/12 10:42:47;;;;;;;21.57;20.50;;;3.70;99.90;;;;;;4935304;29;20462;-77
2021/01/12 10:45:14;;;;;;;25.17;24.07;;;3.70;99.90;;;;;;4935139;29;20445;-75
2021/01/12 10:47:43;;;;;;;23.47;22.50;;;3.70;99.90;;;;;;4935156;29;20575;-77
2021/01/12 10:50:12;;;;;;;20.77;19.97;;;3.70;99.90;;;;;;4935392;29;20828;-75
2021/01/12 10:52:38;;;;;;;20.83;20.03;;;3.70;99.90;;;;;;4935239;29;20822;-75
2021/01/12 10:55:06;;;;;;;19.10;18.40;;;3.60;99.90;;;;;;4935276;29;20481;-76
2021/01/12 10:57:32;;;;;;;20.70;20.00;;;3.60;99.90;;;;;;4925220;29;20494;-75
2021/01/12 10:59:59;;;;;;;21.67;20.77;;;3.60;99.90;;;;;;4926319;29;20464;-76
2021/01/12 11:02:25;;;;;;;21.53;20.70;;;3.70;99.90;;;;;;4916121;29;20823;-76
2021/01/12 11:04:52;;;;;;;23.40;22.30;;;3.70;99.90;;;;;;4916102;29;20459;-77
2021/01/12 11:07:18;;;;;;;21.83;21.03;;;3.70;99.90;;;;;;4915804;29;20473;-77
2021/01/12 11:09:44;;;;;;;19.57;18.77;;;3.70;99.90;;;;;;4915847;29;20466;-76
2021/01/12 11:12:12;;;;;;;23.23;22.33;;;3.60;99.90;;;;;;4915939;29;20456;-76
2021/01/12 11:14:38;;;;;;;21.30;20.50;;;3.70;99.90;;;;;;4915948;29;20456;-75
2021/01/12 11:17:04;;;;;;;22.73;21.93;;;3.70;99.90;;;;;;4921624;29;20501;-76
2021/01/12 11:19:30;;;;;;;21.23;20.53;;;3.70;99.90;;;;;;4935130;29;20453;-75
2021/01/12 11:21:58;;;;;;;22.17;21.37;;;3.70;99.90;;;;;;4934820;29;20465;-74
2021/01/12 11:24:24;;;;;;;21.83;21.10;;;3.70;99.90;;;;;;4934763;29;20877;-74
2021/01/12 11:26:52;;;;;;;21.80;21.00;;;3.80;99.90;;;;;;4934903;29;20468;-74
2021/01/12 11:29:19;;;;;;;22.40;21.60;;;3.80;99.90;;;;;;4934862;29;20464;-75
2021/01/12 11:31:45;;;;;;;22.50;21.70;;;3.80;99.90;;;;;;4934969;29;20818;-76
2021/01/12 11:34:11;;;;;;;21.03;20.23;;;3.80;99.90;;;;;;4934643;29;21143;-75
2021/01/12 11:36:39;;;;;;;20.70;20.00;;;3.80;99.90;;;;;;4934606;29;20547;-75
2021/01/12 11:39:09;;;;;;;21.03;20.00;;;3.70;99.90;;;;;;4933970;29;20493;-72
2021/01/12 11:41:35;;;;;;;20.53;19.73;;;3.70;99.90;;;;;;4949806;29;20522;-73
2021/01/12 11:44:02;;;;;;;20.10;19.40;;;3.80;99.90;;;;;;4953654;29;20453;-73
2021/01/12 11:46:28;;;;;;;21.60;20.80;;;3.70;99.90;;;;;;4953510;29;20455;-74
2021/01/12 11:48:55;;;;;;;22.50;21.70;;;3.80;99.90;;;;;;4953334;29;20453;-74
2021/01/12 11:51:21;;;;;;;19.60;18.90;;;3.80;99.90;;;;;;4953319;29;21262;-74
2021/01/12 11:53:51;;;;;;;22.47;21.20;;;3.80;99.90;;;;;;4953196;29;20458;-75
2021/01/12 11:56:18;;;;;;;20.80;19.90;;;3.80;99.90;;;;;;4953368;29;20559;-75
2021/01/12 11:58:44;;;;;;;20.07;19.47;;;3.90;99.90;;;;;;4953043;29;21005;-76
2021/01/12 12:01:11;;;;;;;19.93;19.23;;;3.90;99.90;;;;;;4953228;29;20459;-75
2021/01/12 12:03:37;;;;;;;19.70;18.87;;;3.80;99.90;;;;;;4953230;29;20963;-74
2021/01/12 12:06:04;;;;;;;21.33;20.63;;;3.80;99.90;;;;;;4953170;29;20445;-73
2021/01/12 12:08:30;;;;;;;21.10;20.30;;;3.80;99.90;;;;;;4953188;29;20449;-73
2021/01/12 12:11:01;;;;;;;20.43;19.73;;;3.80;99.90;;;;;;4953205;29;20456;-73
2021/01/12 12:13:28;;;;;;;20.13;19.43;;;3.80;99.90;;;;;;4952993;29;20974;-74
2021/01/12 12:15:55;;;;;;;22.80;21.90;;;3.80;99.90;;;;;;4953140;29;20480;-74
2021/01/12 12:18:21;;;;;;;21.80;20.93;;;3.90;99.90;;;;;;4937088;29;20496;-74
2021/01/12 12:20:48;;;;;;;22.17;21.37;;;3.90;99.90;;;;;;4933694;29;20457;-73
2021/01/12 12:24:03;;;;;;;22.43;21.63;;;4.10;99.90;;;;;;4269567;27;25190551;-72
2021/01/12 12:26:29;;;;;;;22.90;22.10;;;4.00;99.90;;;;;;5148234;27;20659;-72
2021/01/12 12:28:55;;;;;;;21.47;20.70;;;4.00;99.90;;;;;;5148654;27;20442;-73
2021/01/12 12:31:21;;;;;;;21.07;20.27;;;4.10;99.90;;;;;;5148732;27;20453;-72
2021/01/12 12:33:47;;;;;;;21.60;20.80;;;4.00;99.90;;;;;;5148748;27;20469;-72
2021/01/12 12:36:15;;;;;;;20.93;20.13;;;4.10;99.90;;;;;;5148834;27;20449;-71
2021/01/12 12:38:44;;;;;;;20.73;19.93;;;4.00;99.90;;;;;;5149050;27;20460;-72
2021/01/12 12:41:14;;;;;;;21.60;20.70;;;4.00;99.90;;;;;;5149021;27;20439;-72